Ordynskoe, Russia

12:18 PM NOVT on August 04, 2015 (GMT +0600)
Tolmachevo | | Change Station
CLOSE
Current Station
Airport
Location: Tolmachevo,
Elevation: 364 ft
Nearby Weather Stations

Elev 364 ft 55.01 °N, 82.65 °E | Updated 18 minutes ago

Mostly Cloudy
Mostly Cloudy
75 °F
Feels Like 75 °F
N
16
Wind Variable Wind from WNW

Today
High -- | Low -- °F
--% Chance of Precip.
Yesterday
High -- | Low -- °F
Precip. -- in
4:48 AM 8:27 PM
Waning Gibbous, 80% visible
Pressure 29.71 in
Visibility 6.2 miles
Clouds Mostly Cloudy 4200 ft
Dew Point 54 °F
Humidity 47%
Rainfall 0.00 in
Snow Depth Not available.
UV 3 out of 12
Pollen Not available.
Air Quality Not available.
Flu Activity Not available.
METAR UNNT 040600Z 30007MPS 9999 BKN042 24/12 Q1006 R34/090070 R25/190065 NOSIG RMK QFE744/0992

More Conditions Fewer Conditions

Pressure 29.71 in
Visibility 6.2 miles
Clouds Mostly Cloudy 4200 ft
Dew Point 54 °F
Humidity 47%
Rainfall 0.00 in
Snow Depth Not available.
UV 3 out of 12
Pollen Not available.
Air Quality Not available.
Flu Activity Not available.
METAR UNNT 040600Z 30007MPS 9999 BKN042 24/12 Q1006 R34/090070 R25/190065 NOSIG RMK QFE744/0992

More Conditions Fewer Conditions

10-Day Weather Forecast

×

Almanac

Astronomy

Aug. 04, 2015 Rise Set
Actual Time
Civil Twilight
Nautical Twilight
Astronomical Twilight
Moon
Length of Visible Light
Length of Day
Tomorrow will be .
, % of the Moon is Illuminated

Today's Extremes

Country Highs Country Lows

Community

WunderPhotos

Upload Photos

1,843,870 photos uploaded!

WunderBlogs® & News

Nearby

Air Quality

  Air Quality AQ Index Pollutant
Not available.

Snow Depth

Station Depth Elevation

Earthquake Activity

City Distance Mag. Time & Date
Minimum magnitude displayed is 2.5.

Coastal Water Temperatures

Place Temperature

Stations

Nearby Weather Stations

Station Location Temp. Windchill Dew Point Humidity Wind Precip. Elev Updated Type